createdAt,value
2022-12-20T00:01:32.940Z,4.40
2022-12-20T00:04:06.018Z,4.38
2022-12-20T00:06:35.177Z,4.30
2022-12-20T00:09:03.711Z,4.03
2022-12-20T00:11:30.551Z,4.65
2022-12-20T00:13:58.540Z,4.40
2022-12-20T00:16:27.859Z,4.32
2022-12-20T00:18:57.642Z,4.38
2022-12-20T00:21:24.830Z,4.38
2022-12-20T00:23:52.730Z,4.20
2022-12-20T00:26:23.025Z,4.30
2022-12-20T00:28:50.138Z,4.27
2022-12-20T00:31:20.501Z,4.30
2022-12-20T00:33:49.265Z,4.32
2022-12-20T00:36:17.482Z,4.50
2022-12-20T00:38:49.482Z,4.38
2022-12-20T00:41:21.811Z,4.35
2022-12-20T00:43:49.348Z,4.47
2022-12-20T00:46:18.254Z,4.30
2022-12-20T00:48:45.356Z,4.43
2022-12-20T00:51:15.119Z,4.53
2022-12-20T00:53:42.665Z,4.35
2022-12-20T00:56:10.319Z,4.22
2022-12-20T00:58:39.557Z,4.43
2022-12-20T01:01:16.317Z,4.80
2022-12-20T01:03:43.241Z,4.32
2022-12-20T01:06:10.439Z,4.38
2022-12-20T01:08:37.544Z,4.00
2022-12-20T01:11:08.335Z,4.50
2022-12-20T01:13:37.428Z,4.40
2022-12-20T01:16:08.757Z,4.32
2022-12-20T01:18:35.984Z,4.50
2022-12-20T01:21:04.745Z,4.18
2022-12-20T01:23:31.898Z,4.43
2022-12-20T01:26:05.089Z,3.90
2022-12-20T01:28:32.901Z,4.32
2022-12-20T01:31:00.222Z,4.20
2022-12-20T01:33:27.410Z,3.85
2022-12-20T01:35:59.210Z,4.07
2022-12-20T01:38:26.640Z,4.22
2022-12-20T01:40:54.813Z,4.00
2022-12-20T01:43:22.343Z,4.00
2022-12-20T01:45:49.258Z,4.00
2022-12-20T01:48:24.786Z,3.95
2022-12-20T01:50:52.582Z,3.95
2022-12-20T01:53:22.249Z,4.00
2022-12-20T01:55:49.754Z,3.53
2022-12-20T01:58:18.071Z,3.40
2022-12-20T02:00:45.000Z,3.40
2022-12-20T02:03:14.681Z,3.90
2022-12-20T02:05:48.071Z,3.50
2022-12-20T02:08:17.962Z,3.43
2022-12-20T02:11:02.932Z,3.40
2022-12-20T02:13:48.067Z,3.45
2022-12-20T02:16:23.112Z,3.50
2022-12-20T02:19:26.176Z,3.20
2022-12-20T02:22:22.293Z,3.50
2022-12-20T02:25:26.541Z,2.88
2022-12-20T02:28:02.470Z,3.30
2022-12-20T02:30:35.959Z,3.08
2022-12-20T02:33:07.307Z,3.03
2022-12-20T02:35:37.476Z,3.20
2022-12-20T02:38:28.341Z,3.08
2022-12-20T02:41:04.773Z,3.30
2022-12-20T02:43:51.951Z,2.97
2022-12-20T02:46:21.108Z,3.00
2022-12-20T02:48:49.521Z,2.80
2022-12-20T02:51:17.590Z,3.00
2022-12-20T02:53:45.018Z,2.97
2022-12-20T02:56:31.594Z,3.20
2022-12-20T02:59:13.989Z,3.28
2022-12-20T03:01:59.515Z,3.30
2022-12-20T03:04:34.889Z,3.67
2022-12-20T03:07:03.913Z,3.70
2022-12-20T03:09:32.387Z,4.00
2022-12-20T03:12:00.186Z,3.88
2022-12-20T03:14:27.599Z,3.67
2022-12-20T03:16:54.583Z,3.38
2022-12-20T03:19:21.916Z,3.33
2022-12-20T03:21:48.830Z,3.92
2022-12-20T03:24:16.154Z,3.53
2022-12-20T03:26:43.578Z,4.00
2022-12-20T03:29:10.937Z,3.77
2022-12-20T03:31:38.100Z,3.50
2022-12-20T03:34:05.766Z,3.70
2022-12-20T03:36:32.893Z,4.20
2022-12-20T03:38:59.922Z,3.70
2022-12-20T03:41:27.217Z,3.57
2022-12-20T03:43:54.201Z,4.13
2022-12-20T03:46:21.184Z,3.70
2022-12-20T03:48:48.085Z,3.70
2022-12-20T03:51:15.172Z,3.80
2022-12-20T03:53:42.025Z,3.70
2022-12-20T03:56:10.278Z,3.87
2022-12-20T03:58:37.216Z,4.30
2022-12-20T04:01:24.474Z,4.13
2022-12-20T04:03:52.169Z,4.30
2022-12-20T04:06:20.107Z,4.90
2022-12-20T04:08:47.160Z,4.70
2022-12-20T04:11:17.447Z,4.90
2022-12-20T04:13:52.655Z,5.20
2022-12-20T04:16:25.382Z,5.73
2022-12-20T04:18:52.326Z,5.13
2022-12-20T04:21:24.715Z,5.37
2022-12-20T04:23:51.552Z,5.07
2022-12-20T04:26:18.531Z,5.40
2022-12-20T04:28:45.922Z,5.33
2022-12-20T04:31:16.101Z,4.53
2022-12-20T04:33:46.555Z,5.43
2022-12-20T04:36:13.522Z,5.30
2022-12-20T04:38:40.602Z,5.80
2022-12-20T04:41:07.801Z,6.10
2022-12-20T04:43:34.676Z,6.17
2022-12-20T04:46:01.585Z,5.60
2022-12-20T04:51:17.073Z,5.80
2022-12-20T04:53:48.211Z,5.30
2022-12-20T04:56:27.836Z,5.00
2022-12-20T04:58:56.625Z,6.43
2022-12-20T05:01:24.317Z,5.37
2022-12-20T05:03:52.137Z,6.70
2022-12-20T05:06:19.182Z,5.13
2022-12-20T05:08:46.069Z,4.87
2022-12-20T05:11:13.376Z,5.47
2022-12-20T05:13:40.573Z,4.47
2022-12-20T05:16:07.715Z,4.23
2022-12-20T05:18:34.784Z,4.27
2022-12-20T05:21:21.065Z,4.83
2022-12-20T05:24:06.292Z,5.60
2022-12-20T05:26:37.929Z,4.00
2022-12-20T05:29:05.805Z,3.80
2022-12-20T05:31:33.058Z,3.80
2022-12-20T05:34:00.465Z,4.20
2022-12-20T05:36:27.790Z,4.03
2022-12-20T05:39:00.058Z,3.70
2022-12-20T05:41:30.747Z,4.07
2022-12-20T05:43:57.832Z,3.73
2022-12-20T05:46:24.894Z,4.17
2022-12-20T05:48:52.592Z,4.33
2022-12-20T05:51:19.565Z,4.90
2022-12-20T05:53:46.565Z,3.50
2022-12-20T05:56:13.671Z,4.27
2022-12-20T05:58:40.652Z,4.00
2022-12-20T06:01:09.040Z,3.90
2022-12-20T06:03:36.592Z,4.17
2022-12-20T06:06:08.644Z,4.10
2022-12-20T06:08:38.916Z,3.97
2022-12-20T06:11:07.186Z,4.03
2022-12-20T06:13:34.080Z,3.77
2022-12-20T06:16:01.173Z,4.10
2022-12-20T06:18:28.398Z,4.63
2022-12-20T06:20:55.634Z,6.53
2022-12-20T06:23:23.625Z,4.93
2022-12-20T06:25:50.527Z,4.90
2022-12-20T06:28:22.000Z,9.20
2022-12-20T06:30:57.010Z,5.13
2022-12-20T06:33:24.710Z,5.73
2022-12-20T06:35:52.210Z,5.13
2022-12-20T06:38:19.143Z,7.20
2022-12-20T06:40:46.292Z,5.30
2022-12-20T06:43:13.226Z,4.83
2022-12-20T06:45:42.138Z,5.80
2022-12-20T06:48:10.346Z,6.03
2022-12-20T06:50:39.525Z,8.07
2022-12-20T06:53:06.868Z,6.80
2022-12-20T06:55:34.018Z,6.67
2022-12-20T06:58:00.949Z,5.87
2022-12-20T07:00:27.867Z,6.33
2022-12-20T07:02:55.132Z,5.30
2022-12-20T07:05:22.251Z,5.40
2022-12-20T07:07:49.345Z,5.77
2022-12-20T07:10:16.839Z,5.63
2022-12-20T07:12:48.260Z,6.90
2022-12-20T07:15:15.926Z,6.97
2022-12-20T07:17:42.891Z,5.10
2022-12-20T07:20:13.782Z,4.87
2022-12-20T07:22:41.745Z,5.53
2022-12-20T07:25:09.460Z,5.40
2022-12-20T07:27:36.993Z,5.73
2022-12-20T07:30:05.423Z,5.53
2022-12-20T07:32:32.648Z,5.00
2022-12-20T07:34:59.790Z,4.50
2022-12-20T07:37:29.201Z,5.13
2022-12-20T07:39:56.253Z,3.90
2022-12-20T07:42:23.165Z,4.23
2022-12-20T07:44:50.164Z,5.17
2022-12-20T07:47:17.040Z,4.77
2022-12-20T07:49:44.006Z,5.23
2022-12-20T07:52:13.399Z,4.77
2022-12-20T07:54:54.940Z,4.70
2022-12-20T07:57:35.224Z,5.50
2022-12-20T08:00:03.414Z,4.97
2022-12-20T08:02:38.756Z,4.77
2022-12-20T08:05:08.345Z,4.90
2022-12-20T08:07:38.080Z,4.53
2022-12-20T08:10:08.350Z,4.90
2022-12-20T08:12:35.587Z,5.50
2022-12-20T08:15:03.030Z,5.63
2022-12-20T08:17:30.041Z,5.60
2022-12-20T08:19:57.818Z,5.30
2022-12-20T08:22:24.792Z,5.53
2022-12-20T08:24:51.719Z,5.30
2022-12-20T08:27:18.621Z,5.57
2022-12-20T08:29:45.593Z,5.73
2022-12-20T08:32:14.194Z,4.77
2022-12-20T08:34:41.212Z,4.70
2022-12-20T08:37:14.475Z,4.90
2022-12-20T08:39:42.412Z,5.07
2022-12-20T08:42:09.817Z,5.30
2022-12-20T08:44:36.767Z,5.03
2022-12-20T08:47:03.782Z,4.70
2022-12-20T08:49:30.725Z,4.87
2022-12-20T08:51:57.883Z,4.73
2022-12-20T08:54:24.856Z,4.70
2022-12-20T08:56:51.781Z,4.40
2022-12-20T08:59:19.379Z,4.47
2022-12-20T09:01:46.460Z,5.10
2022-12-20T09:04:14.790Z,4.90
2022-12-20T09:06:41.838Z,4.80
2022-12-20T09:09:08.779Z,4.20
2022-12-20T09:11:35.669Z,4.30
2022-12-20T09:14:03.092Z,4.33
2022-12-20T09:16:32.998Z,4.13
2022-12-20T09:19:05.629Z,3.80
2022-12-20T09:21:34.315Z,3.93
2022-12-20T09:24:01.321Z,4.33
2022-12-20T09:26:28.304Z,3.80
2022-12-20T09:28:55.228Z,4.17
2022-12-20T09:31:25.080Z,4.13
2022-12-20T09:33:57.995Z,3.50
2022-12-20T09:36:26.706Z,3.90
2022-12-20T09:38:54.905Z,3.37
2022-12-20T09:41:43.189Z,3.63
2022-12-20T09:44:19.285Z,4.25
2022-12-20T09:47:14.761Z,4.30
2022-12-20T09:49:51.633Z,3.60
2022-12-20T09:52:39.603Z,3.93
2022-12-20T09:55:28.956Z,3.20
2022-12-20T09:58:10.711Z,2.90
2022-12-20T10:00:53.964Z,2.90
2022-12-20T10:03:30.589Z,3.57
2022-12-20T10:06:11.160Z,3.17
2022-12-20T10:09:00.209Z,3.23
2022-12-20T10:12:14.538Z,2.90
2022-12-20T10:14:56.448Z,3.03
2022-12-20T10:17:50.201Z,3.10
2022-12-20T10:20:22.910Z,2.80
2022-12-20T10:23:15.429Z,2.80
2022-12-20T10:25:43.355Z,3.10
2022-12-20T10:28:15.511Z,3.10
2022-12-20T10:30:43.484Z,3.13
2022-12-20T10:33:31.512Z,2.53
2022-12-20T10:36:27.653Z,2.53
2022-12-20T10:38:59.661Z,2.80
2022-12-20T10:41:29.810Z,3.33
2022-12-20T10:43:59.813Z,3.00
2022-12-20T10:46:46.311Z,3.10
2022-12-20T10:49:36.342Z,2.80
2022-12-20T10:52:09.104Z,3.77
2022-12-20T10:54:44.277Z,2.80
2022-12-20T10:57:41.970Z,2.73
2022-12-20T11:00:29.807Z,3.00
2022-12-20T11:03:22.869Z,2.97
2022-12-20T11:05:59.679Z,3.30
2022-12-20T11:08:41.155Z,3.73
2022-12-20T11:11:22.112Z,3.10
2022-12-20T11:13:50.324Z,3.37
2022-12-20T11:16:45.491Z,3.50
2022-12-20T11:19:48.028Z,3.63
2022-12-20T11:22:53.248Z,4.50
2022-12-20T11:25:25.746Z,3.70
2022-12-20T11:28:21.879Z,3.43
2022-12-20T11:31:21.214Z,3.33
2022-12-20T11:34:06.888Z,2.90
2022-12-20T11:36:40.123Z,3.77
2022-12-20T11:39:25.479Z,3.00
2022-12-20T11:41:55.627Z,2.70
2022-12-20T11:44:53.937Z,2.63
2022-12-20T11:47:40.044Z,2.93
2022-12-20T11:50:30.308Z,3.10
2022-12-20T11:53:32.327Z,3.33
2022-12-20T11:56:05.384Z,2.73
2022-12-20T11:58:52.682Z,3.17
2022-12-20T12:01:24.763Z,2.87
2022-12-20T12:04:01.240Z,3.30
2022-12-20T12:06:34.311Z,3.60
2022-12-20T12:09:44.774Z,3.30
2022-12-20T12:12:34.585Z,3.13
2022-12-20T12:15:01.598Z,3.03
2022-12-20T12:17:37.137Z,3.17
2022-12-20T12:20:29.948Z,3.50
2022-12-20T12:23:05.790Z,3.27
2022-12-20T12:25:32.780Z,2.93
2022-12-20T12:28:00.826Z,2.90
2022-12-20T12:30:35.906Z,2.90
2022-12-20T12:33:11.590Z,3.00
2022-12-20T12:36:03.240Z,2.80
2022-12-20T12:39:02.510Z,3.10
2022-12-20T12:42:02.905Z,3.20
2022-12-20T12:44:48.334Z,3.60
2022-12-20T12:47:33.907Z,3.20
2022-12-20T12:50:03.511Z,3.50
2022-12-20T12:52:44.041Z,3.30
2022-12-20T12:55:36.503Z,3.13
2022-12-20T12:58:26.693Z,3.50
2022-12-20T13:00:58.719Z,3.30
2022-12-20T13:03:46.232Z,4.07
2022-12-20T13:06:25.601Z,3.93
2022-12-20T13:09:04.499Z,3.70
2022-12-20T13:11:34.507Z,3.60
2022-12-20T13:14:20.169Z,4.10
2022-12-20T13:17:11.501Z,4.10
2022-12-20T13:19:40.305Z,4.80
2022-12-20T13:22:13.181Z,4.40
2022-12-20T13:24:45.321Z,4.90
2022-12-20T13:27:27.317Z,4.87
2022-12-20T13:30:12.296Z,5.13
2022-12-20T13:32:48.152Z,6.10
2022-12-20T13:35:28.215Z,5.60
2022-12-20T13:38:13.448Z,6.63
2022-12-20T13:41:11.124Z,5.50
2022-12-20T13:43:46.118Z,4.73
2022-12-20T13:46:19.432Z,4.80
2022-12-20T13:48:52.536Z,4.87
2022-12-20T13:51:24.925Z,4.73
2022-12-20T13:53:56.313Z,4.57
2022-12-20T13:56:29.788Z,4.70
2022-12-20T13:59:13.098Z,4.37
2022-12-20T14:01:49.447Z,4.40
2022-12-20T14:04:18.334Z,4.83
2022-12-20T14:06:54.439Z,4.60
2022-12-20T14:09:32.195Z,4.97
2022-12-20T14:12:06.887Z,5.88
2022-12-20T14:14:44.750Z,6.53
2022-12-20T14:17:28.574Z,5.93
2022-12-20T14:20:04.735Z,4.57
2022-12-20T14:22:32.553Z,5.22
2022-12-20T14:24:59.939Z,5.10
2022-12-20T14:27:33.291Z,5.37
2022-12-20T14:30:00.481Z,33.90
2022-12-20T14:32:27.569Z,22.33
2022-12-20T14:34:54.795Z,4.80
2022-12-20T14:37:25.250Z,6.50
2022-12-20T14:39:58.702Z,14.67
2022-12-20T14:42:30.017Z,14.17
2022-12-20T14:45:25.746Z,8.13
2022-12-20T14:47:57.660Z,5.20
2022-12-20T14:50:40.945Z,5.53
2022-12-20T14:53:25.362Z,25.98
2022-12-20T14:55:52.862Z,6.50
2022-12-20T14:58:31.745Z,6.40
2022-12-20T15:01:15.109Z,8.68
2022-12-20T15:03:56.802Z,8.17
2022-12-20T15:06:44.149Z,8.20
2022-12-20T15:09:11.060Z,7.83
2022-12-20T15:11:38.788Z,8.10
2022-12-20T15:14:31.551Z,8.77
2022-12-20T15:16:58.518Z,9.27
2022-12-20T15:19:25.539Z,9.60
2022-12-20T15:21:53.317Z,9.40
2022-12-20T15:24:24.155Z,9.50
2022-12-20T15:26:51.307Z,9.43
2022-12-20T15:29:20.950Z,9.37
2022-12-20T15:31:48.608Z,9.40
2022-12-20T15:34:35.172Z,10.37
2022-12-20T15:37:02.660Z,10.33
2022-12-20T15:39:30.095Z,10.60
2022-12-20T15:42:00.281Z,11.47
2022-12-20T15:44:29.605Z,11.20
2022-12-20T15:46:56.654Z,10.10
2022-12-20T15:49:27.636Z,11.03
2022-12-20T15:51:55.304Z,10.57
2022-12-20T15:54:28.090Z,10.40
2022-12-20T15:56:56.646Z,11.30
2022-12-20T16:02:33.449Z,10.10
2022-12-20T16:05:01.696Z,10.03
2022-12-20T16:07:28.699Z,9.83
2022-12-20T16:09:55.617Z,10.27
2022-12-20T16:12:32.950Z,10.77
2022-12-20T16:14:59.860Z,10.30
2022-12-20T16:17:26.871Z,8.93
2022-12-20T16:19:53.897Z,9.00
2022-12-20T16:22:23.006Z,7.67
2022-12-20T16:24:50.090Z,9.63
2022-12-20T16:27:17.199Z,9.70
2022-12-20T16:29:45.565Z,9.13
2022-12-20T16:32:21.936Z,9.23
2022-12-20T16:34:52.687Z,9.77
2022-12-20T16:37:19.615Z,8.53
2022-12-20T16:39:46.580Z,8.60
2022-12-20T16:42:22.302Z,9.23
2022-12-20T16:44:54.360Z,9.20
2022-12-20T16:47:21.961Z,9.90
2022-12-20T16:49:53.646Z,9.87
2022-12-20T16:52:22.448Z,10.03
2022-12-20T16:54:49.811Z,10.33
2022-12-20T16:57:16.703Z,10.03
2022-12-20T16:59:43.763Z,10.83
2022-12-20T17:02:30.590Z,11.53
2022-12-20T17:04:57.805Z,12.00
2022-12-20T17:07:25.217Z,11.33
2022-12-20T17:10:10.934Z,12.07
2022-12-20T17:12:37.951Z,14.40
2022-12-20T17:15:05.305Z,13.50
2022-12-20T17:17:32.232Z,13.27
2022-12-20T17:19:59.346Z,13.03
2022-12-20T17:25:25.247Z,13.47
2022-12-20T17:27:52.819Z,14.83
2022-12-20T17:30:20.380Z,14.47
2022-12-20T17:32:47.649Z,14.80
2022-12-20T17:35:30.646Z,14.37
2022-12-20T17:37:58.366Z,15.30
2022-12-20T17:40:27.640Z,15.27
2022-12-20T17:42:55.351Z,15.53
2022-12-20T17:45:26.560Z,16.27
2022-12-20T17:47:54.505Z,18.77
2022-12-20T17:50:22.411Z,17.07
2022-12-20T17:52:50.257Z,17.73
2022-12-20T17:55:35.470Z,18.87
2022-12-20T17:58:02.370Z,18.73
2022-12-20T18:00:38.989Z,19.50
2022-12-20T18:03:07.395Z,20.30
2022-12-20T18:05:35.524Z,21.63
2022-12-20T18:08:02.493Z,20.47
2022-12-20T18:10:29.486Z,19.40
2022-12-20T18:12:56.496Z,20.30
2022-12-20T18:15:24.017Z,21.43
2022-12-20T18:17:50.995Z,21.27
2022-12-20T18:20:17.981Z,20.60
2022-12-20T18:22:45.240Z,20.67
2022-12-20T18:25:13.980Z,19.93
2022-12-20T18:27:42.752Z,20.27
2022-12-20T18:30:12.314Z,20.57
2022-12-20T18:32:40.500Z,20.70
2022-12-20T18:35:08.205Z,22.33
2022-12-20T18:37:35.277Z,21.00
2022-12-20T18:40:02.229Z,23.13
2022-12-20T18:42:29.148Z,32.40
2022-12-20T18:44:56.090Z,22.93
2022-12-20T18:47:23.272Z,23.80
2022-12-20T18:49:50.149Z,22.10
2022-12-20T18:52:20.570Z,46.67
2022-12-20T18:54:47.703Z,95.60
2022-12-20T18:57:14.773Z,37.20
2022-12-20T18:59:41.703Z,23.93
2022-12-20T19:02:12.512Z,22.97
2022-12-20T19:04:40.586Z,30.40
2022-12-20T19:07:08.169Z,30.60
2022-12-20T19:09:35.239Z,30.13
2022-12-20T19:12:02.214Z,29.20
2022-12-20T19:14:29.241Z,47.40
2022-12-20T19:16:56.215Z,28.90
2022-12-20T19:19:23.444Z,26.47
2022-12-20T19:21:50.326Z,66.33
2022-12-20T19:24:17.532Z,23.50
2022-12-20T19:26:44.871Z,33.53
2022-12-20T19:29:12.081Z,23.93
2022-12-20T19:31:39.083Z,38.10
2022-12-20T19:34:08.695Z,47.17
2022-12-20T19:36:44.020Z,35.63
2022-12-20T19:39:22.472Z,37.77
2022-12-20T19:42:21.808Z,40.23
2022-12-20T19:44:37.678Z,36.57
2022-12-20T19:47:04.813Z,24.03
2022-12-20T19:49:31.787Z,33.90
2022-12-20T19:51:59.073Z,43.90
2022-12-20T19:54:26.151Z,32.40
2022-12-20T19:56:53.260Z,27.63
2022-12-20T19:59:21.269Z,36.43
2022-12-20T20:01:48.483Z,30.27
2022-12-20T20:04:15.793Z,28.17
2022-12-20T20:06:42.877Z,28.27
2022-12-20T20:09:10.148Z,26.50
2022-12-20T20:11:37.157Z,23.97
2022-12-20T20:14:05.117Z,32.17
2022-12-20T20:16:32.581Z,28.47
2022-12-20T20:18:59.787Z,27.77
2022-12-20T20:21:26.910Z,22.67
2022-12-20T20:23:54.995Z,25.50
2022-12-20T20:26:26.952Z,23.63
2022-12-20T20:28:53.886Z,23.73
2022-12-20T20:31:21.603Z,23.70
2022-12-20T20:33:49.434Z,23.43
2022-12-20T20:36:20.344Z,24.30
2022-12-20T20:38:47.492Z,32.87
2022-12-20T20:41:15.002Z,25.37
2022-12-20T20:43:42.532Z,26.97
2022-12-20T20:46:12.049Z,25.93
2022-12-20T20:48:40.266Z,32.43
2022-12-20T20:51:07.619Z,33.33
2022-12-20T20:53:35.137Z,25.37
2022-12-20T20:56:06.063Z,35.87
2022-12-20T20:58:34.218Z,43.30
2022-12-20T21:01:04.235Z,39.07
2022-12-20T21:03:32.287Z,34.53
2022-12-20T21:06:35.065Z,31.20
2022-12-20T21:08:46.608Z,27.40
2022-12-20T21:11:13.944Z,27.23
2022-12-20T21:13:41.131Z,22.50
2022-12-20T21:16:10.886Z,25.07
2022-12-20T21:18:38.123Z,24.73
2022-12-20T21:21:10.784Z,27.93
2022-12-20T21:23:39.475Z,25.40
2022-12-20T21:26:07.546Z,32.67
2022-12-20T21:28:35.740Z,27.93
2022-12-20T21:31:05.265Z,27.50
2022-12-20T21:33:32.936Z,26.07
2022-12-20T21:36:05.807Z,24.43
2022-12-20T21:38:33.132Z,23.50
2022-12-20T21:41:12.510Z,27.37
2022-12-20T21:43:39.859Z,27.20
2022-12-20T21:46:11.365Z,29.77
2022-12-20T21:48:39.682Z,25.03
2022-12-20T21:51:12.485Z,26.63
2022-12-20T21:53:47.952Z,23.53
2022-12-20T21:56:18.477Z,22.83
2022-12-20T21:58:46.155Z,22.87
2022-12-20T22:01:15.998Z,20.83
2022-12-20T22:03:44.463Z,25.90
2022-12-20T22:06:11.975Z,28.67
2022-12-20T22:08:38.917Z,24.27
2022-12-20T22:11:09.738Z,22.50
2022-12-20T22:13:41.488Z,31.57
2022-12-20T22:16:17.229Z,24.50
2022-12-20T22:18:47.763Z,19.17
2022-12-20T22:21:15.730Z,20.10
2022-12-20T22:23:43.133Z,21.87
2022-12-20T22:26:13.019Z,25.35
2022-12-20T22:28:45.108Z,23.60
2022-12-20T22:31:12.027Z,26.67
2022-12-20T22:33:39.543Z,25.50
2022-12-20T22:36:07.655Z,21.60
2022-12-20T22:38:35.466Z,21.30
2022-12-20T22:41:17.630Z,19.83
2022-12-20T22:43:48.256Z,21.67
2022-12-20T22:46:17.220Z,20.83
2022-12-20T22:48:45.472Z,20.27
2022-12-20T22:51:18.099Z,21.30
2022-12-20T22:53:49.342Z,21.37
2022-12-20T22:56:17.897Z,21.87
2022-12-20T22:58:45.429Z,22.23
2022-12-20T23:01:15.670Z,20.57
2022-12-20T23:03:43.482Z,21.33
2022-12-20T23:06:17.508Z,20.30
2022-12-20T23:08:44.720Z,20.63
2022-12-20T23:11:42.791Z,20.13
2022-12-20T23:14:34.682Z,18.83
2022-12-20T23:17:02.035Z,22.87
2022-12-20T23:19:49.790Z,19.30
2022-12-20T23:22:35.359Z,19.10
2022-12-20T23:25:02.357Z,19.00
2022-12-20T23:27:29.234Z,18.97
2022-12-20T23:29:56.243Z,18.73
2022-12-20T23:32:24.824Z,17.63
2022-12-20T23:34:52.020Z,17.63
2022-12-20T23:37:18.984Z,17.60
2022-12-20T23:39:45.847Z,17.23
2022-12-20T23:42:12.835Z,17.37
2022-12-20T23:44:39.733Z,17.03
2022-12-20T23:47:06.856Z,16.87
2022-12-20T23:49:33.814Z,17.57
2022-12-20T23:52:00.727Z,17.67
2022-12-20T23:54:27.661Z,15.77
2022-12-20T23:56:54.561Z,17.00
2022-12-20T23:59:21.525Z,17.10
